Accueil
METAR-TAF:

METAR-TAF

Aéroports :

Virginia Highlands Airport

Abingdon, Virginie, États-Unis

latitude: 36-41N, longitude: 082-02W, altitude: 631 m

Observation

Le bulletin a été fait il y a 17 minutes, à 22:15 UTC
Vent calme
Température 8°C
Humidité 61%
Pression 1023 hPa
Visibilité: 16.1 km
Nuages épars à une hauteur de 3600 ft

METAR: KVJI 202215Z AUTO 00000KT 10SM SCT036 08/01 A3021 RMK AO2 T00750014

Heure: 17:32 (22:32 UTC)


TAF: absent

Observations et prévisions météorologiques de plus de 4000 aéroports (messages METAR et TAF).

Les stations disponibles sont représentées par des disques jaunes et rouges sur la carte.

Passer la souris dessus pour voir le nom de la station.

Cliquer dessus pour voir les observations et prévisions météorologiques.

Pour changer de carte: cliquez sur les boutons verts avec une croix noire pour zoomer, sur le bouton vert avec un tiret pour effectuer un zoom arrière, ou sur les flèches vertes pour les cartes adjacentes.


METAR-TAF: